createdAt,value
2023-03-11T00:00:41.311Z,9.247151
2023-03-11T00:01:41.336Z,9.247250
2023-03-11T00:02:41.268Z,9.247149
2023-03-11T00:03:41.286Z,9.247104
2023-03-11T00:04:41.277Z,9.247098
2023-03-11T00:05:41.321Z,9.247161
2023-03-11T00:06:41.272Z,9.247211
2023-03-11T00:07:41.230Z,9.247107
2023-03-11T00:08:41.289Z,9.247113
2023-03-11T00:09:41.259Z,9.247127
2023-03-11T00:10:41.224Z,9.247116
2023-03-11T00:11:41.212Z,9.247108
2023-03-11T00:12:41.208Z,9.247098
2023-03-11T00:13:41.231Z,9.247103
2023-03-11T00:14:41.207Z,9.247072
2023-03-11T00:15:41.198Z,9.247079
2023-03-11T00:16:41.194Z,9.247065
2023-03-11T00:17:41.158Z,9.247108
2023-03-11T00:18:41.181Z,9.247108
2023-03-11T00:19:41.207Z,9.247112
2023-03-11T00:20:41.167Z,9.247136
2023-03-11T00:21:41.180Z,9.247082
2023-03-11T00:22:41.132Z,9.247072
2023-03-11T00:23:41.159Z,9.247093
2023-03-11T00:24:41.136Z,9.247103
2023-03-11T00:25:41.149Z,9.247115
2023-03-11T00:26:41.109Z,9.247137
2023-03-11T00:27:41.106Z,9.247074
2023-03-11T00:28:41.170Z,9.247112
2023-03-11T00:29:41.102Z,9.247185
2023-03-11T00:30:41.132Z,9.247120
2023-03-11T00:31:41.096Z,9.247110
2023-03-11T00:32:41.100Z,9.247078
2023-03-11T00:33:41.137Z,9.247133
2023-03-11T00:34:41.062Z,9.247140
2023-03-11T00:35:41.202Z,9.247128
2023-03-11T00:36:41.042Z,9.247117
2023-03-11T00:37:41.032Z,9.247128
2023-03-11T00:38:41.131Z,9.247110
2023-03-11T00:39:41.015Z,9.247043
2023-03-11T00:40:41.049Z,9.247095
2023-03-11T00:41:41.041Z,9.247093
2023-03-11T00:42:41.029Z,9.247154
2023-03-11T00:43:41.008Z,9.247106
2023-03-11T00:44:40.994Z,9.247109
2023-03-11T00:45:40.998Z,9.247134
2023-03-11T00:46:40.968Z,9.247105
2023-03-11T00:47:40.979Z,9.247191
2023-03-11T00:48:40.964Z,9.247216
2023-03-11T00:49:40.947Z,9.247185
2023-03-11T00:50:40.977Z,9.247211
2023-03-11T00:51:40.987Z,9.247090
2023-03-11T00:52:40.952Z,9.247009
2023-03-11T00:53:40.955Z,9.247074
2023-03-11T00:54:40.961Z,9.247014
2023-03-11T00:55:40.948Z,9.247013
2023-03-11T00:56:40.955Z,9.247138
2023-03-11T00:57:40.902Z,9.247036
2023-03-11T00:58:40.934Z,9.246910
2023-03-11T00:59:40.872Z,9.247014
2023-03-11T01:00:40.920Z,9.247037
2023-03-11T01:01:40.922Z,9.247058
2023-03-11T01:02:40.862Z,9.247112
2023-03-11T01:03:40.860Z,9.247070
2023-03-11T01:04:40.944Z,9.247108
2023-03-11T01:05:40.908Z,9.247106
2023-03-11T01:06:45.570Z,9.247129
2023-03-11T01:07:42.845Z,9.247137
2023-03-11T01:08:40.824Z,9.247112
2023-03-11T01:09:40.843Z,9.247033
2023-03-11T01:10:40.845Z,9.247083
2023-03-11T01:11:40.845Z,9.247132
2023-03-11T01:12:40.828Z,9.247127
2023-03-11T01:13:40.833Z,9.247135
2023-03-11T01:14:40.776Z,9.247043
2023-03-11T01:15:40.849Z,9.247017
2023-03-11T01:16:40.800Z,9.247142
2023-03-11T07:19:47.913Z,9.246979
2023-03-11T07:20:47.941Z,9.246902
2023-03-11T07:21:47.914Z,9.246912
2023-03-11T07:22:47.934Z,9.246964
2023-03-11T07:23:47.864Z,9.246988
2023-03-11T07:24:47.894Z,9.246943
2023-03-11T07:25:47.864Z,9.246999
2023-03-11T07:26:47.870Z,9.247114
2023-03-11T07:27:47.855Z,9.247101
2023-03-11T07:28:47.835Z,9.247045
2023-03-11T07:29:47.884Z,9.247032
2023-03-11T07:30:47.857Z,9.247038
2023-03-11T07:31:47.858Z,9.247086
2023-03-11T07:32:47.921Z,9.247103
2023-03-11T07:33:47.842Z,9.246981
2023-03-11T07:34:47.796Z,9.247074
2023-03-11T07:35:47.844Z,9.247070
2023-03-11T07:36:47.795Z,9.247071
2023-03-11T07:37:47.792Z,9.247043
2023-03-11T07:38:47.799Z,9.247062
2023-03-11T07:39:47.823Z,9.247100
2023-03-11T07:40:47.769Z,9.247048
2023-03-11T07:41:47.784Z,9.247061
2023-03-11T07:42:47.794Z,9.247076
2023-03-11T07:43:47.733Z,9.247105
2023-03-11T07:44:47.729Z,9.247066
2023-03-11T07:45:47.768Z,9.247056
2023-03-11T07:46:47.742Z,9.247053
2023-03-11T07:47:47.741Z,9.247142
2023-03-11T07:48:47.715Z,9.247092
2023-03-11T07:49:47.728Z,9.247081
2023-03-11T07:50:47.693Z,9.247093
2023-03-11T07:51:47.667Z,9.247173
2023-03-11T07:52:47.695Z,9.247102
2023-03-11T07:53:47.672Z,9.247073
2023-03-11T07:54:47.713Z,9.247108
2023-03-11T07:55:47.662Z,9.247075
2023-03-11T07:56:47.648Z,9.247084
2023-03-11T07:57:47.678Z,9.247128
2023-03-11T07:58:48.622Z,9.247078
2023-03-11T07:59:47.639Z,9.247024
2023-03-11T08:00:47.620Z,9.247035
2023-03-11T08:01:47.620Z,9.247079
2023-03-11T08:02:47.668Z,9.247116
2023-03-11T08:03:47.604Z,9.247087
2023-03-11T08:04:47.617Z,9.247050
2023-03-11T08:05:47.588Z,9.247081
2023-03-11T08:06:47.622Z,9.247096
2023-03-11T08:07:47.619Z,9.247089
2023-03-11T08:08:47.592Z,9.247093
2023-03-11T08:09:47.565Z,9.247098
2023-03-11T08:10:47.588Z,9.247109
2023-03-11T08:11:49.586Z,9.247102
2023-03-11T08:12:47.561Z,9.247092
2023-03-11T08:13:47.550Z,9.247119
2023-03-11T08:14:47.531Z,9.247108
2023-03-11T08:15:47.588Z,9.247077
2023-03-11T08:16:47.553Z,9.247107
2023-03-11T08:17:47.540Z,9.247051
2023-03-11T08:18:47.501Z,9.247057
2023-03-11T08:19:47.496Z,9.247056
2023-03-11T08:20:47.504Z,9.247020
2023-03-11T08:21:47.474Z,9.247068
2023-03-11T08:22:57.748Z,9.247119
2023-03-11T08:23:49.495Z,9.247106
2023-03-11T08:24:47.450Z,9.247083
2023-03-11T08:25:47.451Z,9.247076
2023-03-11T08:26:47.447Z,9.247088
2023-03-11T08:27:47.487Z,9.247059
2023-03-11T08:28:47.444Z,9.247120
2023-03-11T08:29:47.486Z,9.247099
2023-03-11T08:30:47.442Z,9.247064
2023-03-11T08:31:47.416Z,9.247101
2023-03-11T08:32:47.462Z,9.247117
2023-03-11T08:33:47.422Z,9.247121
2023-03-11T08:34:47.415Z,9.247077
2023-03-11T08:35:47.424Z,9.247077
2023-03-11T08:36:47.383Z,9.247167
2023-03-11T08:37:47.421Z,9.247133
2023-03-11T08:38:47.443Z,9.247194
2023-03-11T08:39:47.358Z,9.247147
2023-03-11T08:40:47.383Z,9.247210
2023-03-11T08:41:47.336Z,9.247160
2023-03-11T08:42:47.364Z,9.247120
2023-03-11T08:43:47.324Z,9.247128
2023-03-11T08:44:47.342Z,9.247142
2023-03-11T08:45:47.326Z,9.247134
2023-03-11T08:46:47.360Z,9.247098
2023-03-11T08:47:47.316Z,9.247115
2023-03-11T08:48:47.329Z,9.247155
2023-03-11T08:49:47.296Z,9.247129
2023-03-11T08:50:54.016Z,9.247169
2023-03-11T08:51:49.298Z,9.247157
2023-03-11T08:52:47.314Z,9.247109
2023-03-11T08:53:47.263Z,9.247116
2023-03-11T08:54:47.281Z,9.247149
2023-03-11T08:55:47.289Z,9.247195
2023-03-11T08:56:47.283Z,9.247157
2023-03-11T08:57:47.233Z,9.247140
2023-03-11T08:58:47.281Z,9.247131
2023-03-11T08:59:47.246Z,9.247149
2023-03-11T09:00:47.243Z,9.247152
2023-03-11T09:01:47.208Z,9.247136
2023-03-11T09:02:47.288Z,9.247103
2023-03-11T09:03:47.228Z,9.247166
2023-03-11T09:04:47.216Z,9.247083
2023-03-11T09:05:47.173Z,9.247159
2023-03-11T09:06:48.169Z,9.247152
2023-03-11T09:07:47.170Z,9.247129
2023-03-11T09:08:47.193Z,9.247118
2023-03-11T09:09:47.163Z,9.247128
2023-03-11T09:10:47.149Z,9.247153
2023-03-11T09:11:47.227Z,9.247128
2023-03-11T09:12:47.145Z,9.247119
2023-03-11T09:13:47.138Z,9.247150
2023-03-11T09:14:47.125Z,9.247149
2023-03-11T09:15:47.140Z,9.247158
2023-03-11T09:16:47.121Z,9.247173
2023-03-11T09:17:47.089Z,9.247155
2023-03-11T09:18:47.144Z,9.247137
2023-03-11T09:19:47.082Z,9.247123
2023-03-11T09:20:47.095Z,9.247137
2023-03-11T09:21:47.104Z,9.247114
2023-03-11T09:22:47.126Z,9.247084
2023-03-11T09:23:47.080Z,9.247085
2023-03-11T09:24:47.056Z,9.247106
2023-03-11T09:25:47.140Z,9.247115
2023-03-11T09:26:47.044Z,9.247113
2023-03-11T09:27:47.033Z,9.247083
2023-03-11T09:28:47.051Z,9.247137
2023-03-11T09:29:47.008Z,9.247115
2023-03-11T09:30:47.030Z,9.247168
2023-03-11T09:31:47.022Z,9.247148
2023-03-11T09:32:47.029Z,9.247104
2023-03-11T09:33:46.997Z,9.247068
2023-03-11T09:34:46.972Z,9.247116
2023-03-11T09:35:47.020Z,9.247064
2023-03-11T09:36:46.978Z,9.247024
2023-03-11T09:37:46.971Z,9.247127
2023-03-11T09:38:46.975Z,9.247133
2023-03-11T09:39:46.951Z,9.247165
2023-03-11T09:40:47.227Z,9.247187
2023-03-11T09:41:57.503Z,9.247172
2023-03-11T09:42:48.942Z,9.247096
2023-03-11T09:43:46.971Z,9.247143
2023-03-11T09:44:46.920Z,9.247162
2023-03-11T09:45:46.910Z,9.247130
2023-03-11T09:46:46.964Z,9.247151
2023-03-11T09:47:46.900Z,9.247183
2023-03-11T09:48:46.912Z,9.247131
2023-03-11T09:49:46.877Z,9.247262
2023-03-11T09:50:46.861Z,9.247239
2023-03-11T09:51:46.855Z,9.247187
2023-03-11T09:52:46.892Z,9.247238
2023-03-11T09:53:46.881Z,9.247158
2023-03-11T09:54:46.968Z,9.247191
2023-03-11T09:55:46.860Z,9.247174
2023-03-11T09:56:46.862Z,9.247145
2023-03-11T09:57:46.843Z,9.247146
2023-03-11T09:58:46.820Z,9.247249
2023-03-11T09:59:46.812Z,9.247262
2023-03-11T10:00:46.820Z,9.247157
2023-03-11T10:01:46.870Z,9.247181
2023-03-11T10:02:46.921Z,9.247171
2023-03-11T10:03:46.806Z,9.247151
2023-03-11T10:04:46.770Z,9.247154
2023-03-11T10:05:46.772Z,9.247163
2023-03-11T10:06:46.792Z,9.247145
2023-03-11T10:07:46.741Z,9.247149
2023-03-11T10:08:46.807Z,9.247125
2023-03-11T10:09:46.737Z,9.247115
2023-03-11T10:10:46.753Z,9.247089
2023-03-11T10:11:46.764Z,9.247168
2023-03-11T10:12:46.726Z,9.247142
2023-03-11T10:13:46.783Z,9.247147
2023-03-11T10:14:46.702Z,9.247150
2023-03-11T10:15:46.691Z,9.247183
2023-03-11T10:16:46.741Z,9.247163
2023-03-11T10:17:46.663Z,9.247172
2023-03-11T10:18:46.686Z,9.247147
2023-03-11T10:19:46.679Z,9.247124
2023-03-11T10:20:46.684Z,9.247053
2023-03-11T10:21:46.655Z,9.247125
2023-03-11T10:22:46.659Z,9.247124
2023-03-11T10:23:46.697Z,9.247149
2023-03-11T10:24:46.631Z,9.247128
2023-03-11T10:25:46.637Z,9.247204
2023-03-11T10:26:46.611Z,9.247166
2023-03-11T10:27:46.633Z,9.247150
2023-03-11T10:28:46.638Z,9.247171
2023-03-11T10:29:46.608Z,9.247210
2023-03-11T10:30:46.584Z,9.247143
2023-03-11T10:31:46.671Z,9.247129
2023-03-11T10:32:46.648Z,9.247174
2023-03-11T10:33:47.726Z,9.247155
2023-03-11T10:34:47.564Z,9.247135
2023-03-11T10:35:46.593Z,9.247118
2023-03-11T10:36:46.549Z,9.247146
2023-03-11T10:37:49.363Z,9.247158
2023-03-11T10:38:47.550Z,9.247173
2023-03-11T10:39:46.503Z,9.247130
2023-03-11T10:40:46.508Z,9.247035
2023-03-11T10:41:46.503Z,9.247124
2023-03-11T10:42:46.488Z,9.247105
2023-03-11T10:43:46.502Z,9.247117
2023-03-11T10:44:46.478Z,9.247120
2023-03-11T10:45:46.519Z,9.247215
2023-03-11T10:46:46.492Z,9.247112
2023-03-11T10:47:46.696Z,9.247054
2023-03-11T10:48:46.460Z,9.247102
2023-03-11T10:49:46.460Z,9.247131
2023-03-11T10:50:46.444Z,9.247258
2023-03-11T10:51:46.474Z,9.247167
2023-03-11T10:52:46.430Z,9.247100
2023-03-11T10:53:46.424Z,9.247121
2023-03-11T10:54:46.469Z,9.247107
2023-03-11T10:55:46.442Z,9.247136
2023-03-11T10:56:46.395Z,9.247117
2023-03-11T10:57:46.425Z,9.247139
2023-03-11T10:58:46.429Z,9.247087
2023-03-11T10:59:46.385Z,9.247121
2023-03-11T11:00:46.484Z,9.247130
2023-03-11T11:01:46.375Z,9.247106
2023-03-11T11:02:46.402Z,9.247138
2023-03-11T11:03:46.460Z,9.247126
2023-03-11T11:04:46.374Z,9.247108
2023-03-11T11:05:46.344Z,9.247097
2023-03-11T11:06:46.343Z,9.247062
2023-03-11T11:07:46.389Z,9.247066
2023-03-11T11:08:46.339Z,9.247086
2023-03-11T11:09:46.340Z,9.247134
2023-03-11T11:10:46.314Z,9.247144
2023-03-11T11:11:46.300Z,9.247167
2023-03-11T11:12:46.296Z,9.247101
2023-03-11T11:13:46.334Z,9.247098
2023-03-11T11:14:46.287Z,9.247124
2023-03-11T11:15:46.302Z,9.247098
2023-03-11T11:16:46.408Z,9.247136
2023-03-11T11:17:46.272Z,9.247092
2023-03-11T11:18:48.209Z,9.247118
2023-03-11T11:19:46.271Z,9.247087
2023-03-11T11:20:46.232Z,9.247122
2023-03-11T11:21:46.246Z,9.247107
2023-03-11T11:22:46.237Z,9.247071
2023-03-11T11:23:46.230Z,9.247042
2023-03-11T11:24:46.216Z,9.247028
2023-03-11T11:25:46.199Z,9.247127
2023-03-11T11:26:46.212Z,9.247123
2023-03-11T11:27:46.207Z,9.247115
2023-03-11T11:28:46.210Z,9.247111
2023-03-11T11:29:46.183Z,9.247088
2023-03-11T11:30:46.197Z,9.247071
2023-03-11T11:31:46.159Z,9.247085
2023-03-11T11:32:47.285Z,9.247121
2023-03-11T11:33:46.182Z,9.247114
2023-03-11T11:34:46.159Z,9.247105
2023-03-11T11:35:46.156Z,9.247084
2023-03-11T11:36:46.160Z,9.247077
2023-03-11T11:37:46.144Z,9.247090
2023-03-11T11:38:46.174Z,9.247093
2023-03-11T11:39:46.105Z,9.247066
2023-03-11T11:40:46.118Z,9.247042
2023-03-11T11:41:46.115Z,9.247166
2023-03-11T11:44:38.706Z,9.247150
2023-03-11T11:46:32.311Z,9.247150
2023-03-11T11:48:25.760Z,9.247150
2023-03-11T11:50:19.240Z,9.247150
2023-03-11T11:52:12.701Z,9.247150
2023-03-11T11:54:06.197Z,9.247150
2023-03-11T11:55:59.641Z,9.247150
2023-03-11T11:57:53.111Z,9.247150
2023-03-11T11:59:46.563Z,9.247150
2023-03-11T12:01:40.159Z,9.247150
2023-03-11T12:16:28.322Z,9.247239
2023-03-11T12:17:28.280Z,9.247177
2023-03-11T12:18:28.261Z,9.247099
2023-03-11T12:19:28.275Z,9.247164
2023-03-11T12:20:28.282Z,9.247234
2023-03-11T12:21:28.256Z,9.247252
2023-03-11T12:22:28.238Z,9.247046
2023-03-11T12:23:28.246Z,9.247154
2023-03-11T12:24:28.219Z,9.247192
2023-03-11T12:25:28.220Z,9.247167
2023-03-11T12:26:28.223Z,9.247220
2023-03-11T12:27:28.197Z,9.247226
2023-03-11T12:28:28.255Z,9.247229
2023-03-11T12:29:28.204Z,9.247205
2023-03-11T12:30:28.239Z,9.247165
2023-03-11T12:31:28.216Z,9.247213
2023-03-11T12:32:28.228Z,9.247182
2023-03-11T12:33:28.161Z,9.247141
2023-03-11T12:34:28.256Z,9.247187
2023-03-11T12:35:28.141Z,9.247177
2023-03-11T12:36:29.160Z,9.247157
2023-03-11T12:37:28.211Z,9.247206
2023-03-11T12:38:28.138Z,9.247292
2023-03-11T12:39:28.136Z,9.247250
2023-03-11T12:40:28.143Z,9.247273
2023-03-11T12:41:28.125Z,9.247170
2023-03-11T12:42:28.102Z,9.247131
2023-03-11T12:43:28.110Z,9.247129
2023-03-11T12:44:28.138Z,9.247061
2023-03-11T12:45:28.123Z,9.247123
2023-03-11T12:46:28.190Z,9.247244
2023-03-11T12:47:28.103Z,9.247238
2023-03-11T12:48:28.113Z,9.247169
2023-03-11T12:49:28.079Z,9.247106
2023-03-11T12:50:28.059Z,9.247123
2023-03-11T12:51:28.048Z,9.247125
2023-03-11T12:52:28.033Z,9.247116
2023-03-11T12:53:28.164Z,9.247129
2023-03-11T12:54:28.044Z,9.247121
2023-03-11T12:55:28.018Z,9.247127
2023-03-11T12:56:28.076Z,9.247149
2023-03-11T12:57:27.997Z,9.247114
2023-03-11T12:58:28.010Z,9.247134
2023-03-11T12:59:28.031Z,9.247100
2023-03-11T13:00:28.010Z,9.247100
2023-03-11T13:01:27.994Z,9.247098
2023-03-11T13:02:28.003Z,9.247113
2023-03-11T13:03:27.985Z,9.247108
2023-03-11T13:04:27.999Z,9.247122
2023-03-11T13:05:27.958Z,9.247073
2023-03-11T13:06:27.963Z,9.247140
2023-03-11T13:07:27.950Z,9.247074
2023-03-11T13:08:27.951Z,9.247044
2023-03-11T13:09:29.825Z,9.247087
2023-03-11T13:10:27.918Z,9.247094
2023-03-11T13:11:27.903Z,9.247098
2023-03-11T13:12:27.914Z,9.247105
2023-03-11T13:13:27.885Z,9.247082
2023-03-11T13:14:27.933Z,9.247068
2023-03-11T13:15:27.894Z,9.247047
2023-03-11T13:16:27.907Z,9.247072
2023-03-11T13:17:28.871Z,9.247072
2023-03-11T13:18:27.873Z,9.247092
2023-03-11T13:19:27.884Z,9.247096
2023-03-11T13:20:27.856Z,9.247078
2023-03-11T13:21:27.918Z,9.247030
2023-03-11T13:22:27.848Z,9.247096
2023-03-11T13:23:27.845Z,9.247073
2023-03-11T13:24:27.837Z,9.247086
2023-03-11T13:25:27.836Z,9.247118
2023-03-11T13:26:27.818Z,9.247103
2023-03-11T13:27:27.819Z,9.247074
2023-03-11T13:28:27.792Z,9.247045
2023-03-11T13:29:27.804Z,9.247055
2023-03-11T13:30:27.816Z,9.247040
2023-03-11T13:31:27.868Z,9.247067
2023-03-11T13:32:27.786Z,9.247071
2023-03-11T13:33:27.753Z,9.247051
2023-03-11T13:34:27.944Z,9.247082
2023-03-11T13:35:27.731Z,9.247052
2023-03-11T13:36:27.726Z,9.247101
2023-03-11T13:37:27.758Z,9.247041
2023-03-11T13:38:27.732Z,9.247053
2023-03-11T13:39:27.734Z,9.247071
2023-03-11T13:40:27.814Z,9.247091
2023-03-11T13:41:28.161Z,9.247083
2023-03-11T13:42:27.698Z,9.247044
2023-03-11T13:43:27.744Z,9.247038
2023-03-11T13:44:27.721Z,9.247011
2023-03-11T13:45:27.777Z,9.247035
2023-03-11T13:46:27.679Z,9.247036
2023-03-11T13:47:27.707Z,9.247093
2023-03-11T13:48:27.653Z,9.247074
2023-03-11T13:49:27.701Z,9.247063
2023-03-11T13:50:27.650Z,9.247092
2023-03-11T13:51:27.653Z,9.247084
2023-03-11T13:52:27.633Z,9.247063
2023-03-11T13:53:27.634Z,9.247070
2023-03-11T13:54:27.611Z,9.247077
2023-03-11T13:55:27.663Z,9.247057
2023-03-11T13:56:27.659Z,9.247113
2023-03-11T13:57:27.605Z,9.247081
2023-03-11T13:58:27.662Z,9.247072
2023-03-11T13:59:27.576Z,9.247098
2023-03-11T14:00:27.605Z,9.247085
2023-03-11T14:01:27.639Z,9.247039
2023-03-11T14:02:27.657Z,9.247108
2023-03-11T14:03:27.557Z,9.247123
2023-03-11T14:04:27.699Z,9.247090
2023-03-11T14:05:27.639Z,9.247074
2023-03-11T14:06:27.543Z,9.247077
2023-03-11T14:07:27.640Z,9.247092
2023-03-11T14:08:27.573Z,9.247120
2023-03-11T14:09:27.550Z,9.247104
2023-03-11T14:10:27.542Z,9.247103
2023-03-11T14:11:27.496Z,9.247089
2023-03-11T14:12:27.501Z,9.247087
2023-03-11T14:13:27.511Z,9.247174
2023-03-11T14:14:27.505Z,9.247137
2023-03-11T14:15:27.550Z,9.247091
2023-03-11T14:16:27.476Z,9.247084
2023-03-11T14:17:27.446Z,9.247094
2023-03-11T14:18:27.440Z,9.247013
2023-03-11T14:19:27.449Z,9.247025
2023-03-11T14:20:27.450Z,9.247055
2023-03-11T14:21:27.460Z,9.247103
2023-03-11T14:22:27.473Z,9.247120
2023-03-11T14:23:28.370Z,9.247116
2023-03-11T14:24:27.672Z,9.247134
2023-03-11T14:25:27.488Z,9.247072
2023-03-11T14:26:27.448Z,9.247089
2023-03-11T14:27:27.448Z,9.247051
2023-03-11T14:28:27.482Z,9.246972
2023-03-11T14:29:27.433Z,9.246984
2023-03-11T14:30:28.029Z,9.247065
2023-03-11T14:31:27.411Z,9.247073
2023-03-11T14:32:27.457Z,9.247083
2023-03-11T14:33:27.366Z,9.247041
2023-03-11T14:34:27.395Z,9.247085
2023-03-11T14:35:28.047Z,9.247126
2023-03-11T14:36:27.350Z,9.247178
2023-03-11T14:37:27.341Z,9.247162
2023-03-11T14:38:27.364Z,9.247196
2023-03-11T14:39:27.364Z,9.247130
2023-03-11T14:40:27.359Z,9.247164
2023-03-11T14:41:27.343Z,9.247058
2023-03-11T14:42:27.434Z,9.247066
2023-03-11T14:43:27.319Z,9.247051
2023-03-11T14:44:27.529Z,9.247059
2023-03-11T14:45:27.377Z,9.247119
2023-03-11T14:46:27.309Z,9.247131
2023-03-11T14:47:27.358Z,9.247152
2023-03-11T14:48:27.266Z,9.247108
2023-03-11T14:49:27.246Z,9.247069
